createdAt,value
2023-04-13T00:01:56.175Z,0.70
2023-04-13T00:04:24.503Z,0.65
2023-04-13T00:06:52.823Z,0.60
2023-04-13T00:09:21.135Z,0.50
2023-04-13T00:11:49.442Z,0.65
2023-04-13T00:14:19.358Z,0.40
2023-04-13T00:16:47.701Z,0.50
2023-04-13T00:19:17.554Z,0.60
2023-04-13T00:21:46.241Z,0.50
2023-04-13T00:24:14.962Z,0.47
2023-04-13T00:26:43.271Z,0.60
2023-04-13T00:29:11.852Z,0.57
2023-04-13T00:31:41.561Z,0.52
2023-04-13T00:34:09.883Z,0.43
2023-04-13T00:36:38.723Z,0.82
2023-04-13T00:39:07.039Z,0.40
2023-04-13T00:41:35.578Z,0.50
2023-04-13T00:44:08.969Z,0.40
2023-04-13T00:46:37.819Z,0.75
2023-04-13T00:49:08.347Z,1.02
2023-04-13T00:51:41.799Z,0.70
2023-04-13T00:54:10.941Z,0.38
2023-04-13T01:00:27.691Z,0.60
2023-04-13T01:03:02.050Z,0.60
2023-04-13T01:06:28.917Z,0.55
2023-04-13T01:09:09.737Z,0.40
2023-04-13T01:29:26.813Z,0.63
2023-04-13T01:32:22.076Z,0.60
2023-04-13T01:35:04.168Z,0.60
2023-04-13T01:38:02.448Z,0.30
2023-04-13T01:40:41.583Z,0.68
2023-04-13T01:43:14.110Z,0.60
2023-04-13T01:45:54.589Z,0.70
2023-04-13T01:48:29.954Z,0.63
2023-04-13T01:51:20.383Z,0.60
2023-04-13T01:54:13.888Z,0.60
2023-04-13T01:56:45.907Z,1.15
2023-04-13T01:59:16.479Z,0.50
2023-04-13T02:01:47.927Z,0.60
2023-04-13T02:04:17.947Z,0.55
2023-04-13T02:11:14.719Z,0.60
2023-04-13T02:13:43.456Z,0.70
2023-04-13T02:16:15.917Z,0.50
2023-04-13T02:18:44.419Z,0.60
2023-04-13T02:21:14.431Z,1.00
2023-04-13T02:23:42.921Z,0.50
2023-04-13T02:26:13.001Z,0.60
2023-04-13T02:28:41.837Z,0.57
2023-04-13T02:31:10.337Z,0.70
2023-04-13T02:33:39.894Z,0.90
2023-04-13T02:36:15.117Z,0.68
2023-04-13T02:38:53.094Z,0.50
2023-04-13T02:41:27.833Z,0.80
2023-04-13T02:43:56.834Z,0.60
2023-04-13T02:46:32.810Z,0.60
2023-04-13T02:49:10.561Z,0.47
2023-04-13T02:51:45.811Z,0.60
2023-04-13T02:54:18.658Z,0.60
2023-04-13T02:56:49.649Z,0.55
2023-04-13T02:59:18.438Z,0.50
2023-04-13T03:01:52.801Z,0.70
2023-04-13T03:04:24.759Z,0.70
2023-04-13T03:06:54.329Z,0.70
2023-04-13T03:09:25.047Z,0.55
2023-04-13T03:11:56.463Z,0.60
2023-04-13T03:14:29.770Z,0.50
2023-04-13T03:17:04.342Z,0.60
2023-04-13T03:19:39.009Z,1.10
2023-04-13T03:22:08.286Z,0.75
2023-04-13T03:24:42.923Z,1.05
2023-04-13T03:27:19.960Z,0.70
2023-04-13T03:29:58.828Z,0.40
2023-04-13T03:32:37.029Z,0.50
2023-04-13T03:35:05.756Z,0.40
2023-04-13T03:37:40.330Z,0.70
2023-04-13T03:40:20.670Z,0.73
2023-04-13T03:42:52.893Z,0.65
2023-04-13T03:45:24.363Z,0.60
2023-04-13T03:47:58.438Z,0.70
2023-04-13T03:50:28.650Z,0.80
2023-04-13T03:52:57.925Z,1.00
2023-04-13T03:55:27.694Z,0.50
2023-04-13T03:57:59.401Z,0.60
2023-04-13T04:00:30.546Z,0.60
2023-04-13T04:03:15.352Z,0.82
2023-04-13T04:05:53.833Z,1.00
2023-04-13T04:08:22.633Z,0.68
2023-04-13T04:10:54.868Z,0.98
2023-04-13T04:13:23.918Z,0.63
2023-04-13T04:15:56.208Z,0.77
2023-04-13T04:18:24.905Z,0.70
2023-04-13T05:24:58.789Z,0.88
2023-04-13T05:27:27.564Z,0.80
2023-04-13T05:29:58.921Z,0.93
2023-04-13T05:32:27.735Z,1.10
2023-04-13T05:34:58.654Z,0.85
2023-04-13T05:37:28.415Z,0.65
2023-04-13T05:39:57.096Z,0.93
2023-04-13T05:42:32.792Z,0.85
2023-04-13T05:45:02.007Z,1.00
2023-04-13T05:47:31.652Z,1.58
2023-04-13T05:50:06.310Z,0.70
2023-04-13T05:52:34.635Z,0.70
2023-04-13T05:55:04.129Z,0.98
2023-04-13T05:57:34.236Z,1.08
2023-04-13T06:00:10.281Z,1.17
2023-04-13T06:02:55.577Z,0.93
2023-04-13T06:05:24.241Z,1.10
2023-04-13T06:07:53.509Z,0.70
2023-04-13T06:10:22.180Z,0.82
2023-04-13T06:12:53.013Z,1.08
2023-04-13T06:15:21.655Z,1.40
2023-04-13T06:17:52.477Z,0.90
2023-04-13T06:20:21.573Z,1.70
2023-04-13T06:22:50.076Z,2.10
2023-04-13T06:25:21.432Z,1.17
2023-04-13T06:27:51.954Z,0.88
2023-04-13T06:30:22.168Z,1.08
2023-04-13T06:32:54.629Z,1.17
2023-04-13T06:35:25.446Z,1.40
2023-04-13T06:37:54.344Z,1.15
2023-04-13T06:40:28.707Z,1.17
2023-04-13T06:43:13.385Z,1.30
2023-04-13T06:45:58.802Z,2.10
2023-04-13T06:48:29.762Z,1.52
2023-04-13T06:51:00.986Z,1.88
2023-04-13T06:53:30.977Z,3.83
2023-04-13T06:55:59.288Z,1.63
2023-04-13T06:58:29.014Z,1.65
2023-04-13T07:01:13.982Z,1.95
2023-04-13T07:03:43.728Z,1.75
2023-04-13T07:06:28.845Z,1.35
2023-04-13T07:08:57.290Z,1.27
2023-04-13T07:11:27.118Z,1.10
2023-04-13T07:13:56.903Z,1.67
2023-04-13T07:16:26.458Z,1.70
2023-04-13T07:18:54.828Z,2.72
2023-04-13T07:21:23.076Z,1.40
2023-04-13T07:23:57.419Z,1.58
2023-04-13T07:26:26.116Z,1.58
2023-04-13T07:28:54.970Z,1.50
2023-04-13T07:31:29.870Z,1.95
2023-04-13T07:33:58.272Z,1.40
2023-04-13T07:36:33.614Z,1.60
2023-04-13T07:39:08.787Z,1.17
2023-04-13T07:41:41.750Z,2.30
2023-04-13T07:44:14.836Z,3.22
2023-04-13T07:46:45.427Z,1.65
2023-04-13T07:49:14.092Z,1.55
2023-04-13T07:51:43.491Z,1.02
2023-04-13T07:54:12.538Z,2.35
2023-04-13T07:56:41.495Z,1.83
2023-04-13T07:59:11.252Z,1.23
2023-04-13T08:01:39.949Z,1.88
2023-04-13T08:04:12.673Z,1.23
2023-04-13T08:06:44.260Z,1.05
2023-04-13T08:09:12.587Z,1.27
2023-04-13T08:11:40.864Z,1.55
2023-04-13T08:14:11.626Z,1.30
2023-04-13T08:16:41.058Z,1.25
2023-04-13T08:19:13.148Z,1.00
2023-04-13T08:21:47.242Z,1.50
2023-04-13T08:24:15.653Z,1.30
2023-04-13T08:26:44.276Z,1.17
2023-04-13T08:29:13.859Z,1.10
2023-04-13T08:31:42.951Z,1.00
2023-04-13T08:34:14.032Z,1.55
2023-04-13T08:36:42.333Z,0.90
2023-04-13T08:39:12.002Z,1.30
2023-04-13T08:41:45.789Z,1.15
2023-04-13T08:44:15.600Z,1.35
2023-04-13T08:46:47.846Z,1.77
2023-04-13T08:49:21.499Z,1.20
2023-04-13T08:52:14.547Z,1.20
2023-04-13T08:54:45.809Z,1.63
2023-04-13T08:57:21.446Z,1.02
2023-04-13T08:59:51.587Z,1.10
2023-04-13T09:02:26.146Z,1.10
2023-04-13T09:05:05.254Z,1.10
2023-04-13T09:07:36.532Z,2.53
2023-04-13T09:10:11.648Z,1.63
2023-04-13T09:12:42.292Z,1.40
2023-04-13T09:15:17.622Z,1.85
2023-04-13T09:18:12.555Z,5.75
2023-04-13T09:20:57.821Z,6.63
2023-04-13T09:23:26.487Z,1.00
2023-04-13T09:26:05.232Z,3.22
2023-04-13T09:28:33.564Z,1.10
2023-04-13T09:31:05.508Z,1.30
2023-04-13T09:33:36.791Z,1.92
2023-04-13T09:36:12.811Z,1.15
2023-04-13T09:38:41.115Z,1.60
2023-04-13T09:41:09.403Z,1.50
2023-04-13T09:43:38.512Z,1.92
2023-04-13T09:46:13.171Z,1.10
2023-04-13T09:48:41.948Z,1.73
2023-04-13T09:51:10.685Z,1.70
2023-04-13T09:53:45.393Z,1.23
2023-04-13T09:56:13.787Z,3.55
2023-04-13T09:58:45.777Z,1.45
2023-04-13T10:01:15.527Z,1.77
2023-04-13T10:03:47.297Z,1.60
2023-04-13T10:06:17.755Z,1.38
2023-04-13T10:08:51.407Z,1.40
2023-04-13T10:11:21.010Z,1.45
2023-04-13T10:13:51.518Z,1.58
2023-04-13T10:16:43.019Z,1.35
2023-04-13T10:19:13.039Z,1.70
2023-04-13T10:21:42.534Z,1.45
2023-04-13T10:24:13.315Z,1.73
2023-04-13T10:26:42.305Z,1.50
2023-04-13T10:29:13.321Z,1.20
2023-04-13T10:31:42.708Z,1.10
2023-04-13T10:34:11.600Z,1.40
2023-04-13T10:36:40.809Z,1.17
2023-04-13T10:39:10.270Z,1.30
2023-04-13T10:41:39.931Z,1.10
2023-04-13T10:44:08.989Z,3.55
2023-04-13T10:46:37.462Z,1.00
2023-04-13T10:49:06.902Z,0.90
2023-04-13T10:51:42.008Z,1.17
2023-04-13T10:54:10.778Z,1.13
2023-04-13T10:56:40.509Z,1.40
2023-04-13T10:59:09.453Z,1.40
2023-04-13T11:01:41.545Z,1.10
2023-04-13T11:04:15.161Z,1.58
2023-04-13T11:06:48.459Z,2.63
2023-04-13T11:09:18.192Z,1.20
2023-04-13T11:11:52.938Z,1.55
2023-04-13T11:14:24.006Z,1.55
2023-04-13T11:19:26.281Z,1.27
2023-04-13T11:21:56.065Z,0.80
2023-04-13T11:24:28.076Z,1.15
2023-04-13T11:26:58.031Z,1.10
2023-04-13T11:29:27.176Z,1.00
2023-04-13T11:31:55.511Z,1.02
2023-04-13T11:34:29.043Z,0.90
2023-04-13T11:37:01.744Z,1.08
2023-04-13T11:39:32.030Z,0.80
2023-04-13T11:42:05.967Z,0.80
2023-04-13T11:44:35.770Z,1.02
2023-04-13T11:47:04.489Z,1.00
2023-04-13T11:49:32.881Z,0.90
2023-04-13T11:52:01.689Z,0.90
2023-04-13T11:54:30.379Z,1.23
2023-04-13T11:56:58.884Z,1.05
2023-04-13T11:59:29.495Z,0.80
2023-04-13T12:02:02.905Z,0.63
2023-04-13T12:04:38.064Z,0.90
2023-04-13T12:07:11.872Z,0.75
2023-04-13T12:09:56.042Z,0.60
2023-04-13T12:17:39.262Z,0.75
2023-04-13T12:20:16.218Z,1.00
2023-04-13T12:25:17.863Z,0.60
2023-04-13T12:27:46.608Z,0.80
2023-04-13T12:30:17.649Z,0.63
2023-04-13T12:32:47.038Z,0.57
2023-04-13T12:35:15.840Z,0.73
2023-04-13T12:37:44.442Z,0.70
2023-04-13T12:40:14.888Z,0.70
2023-04-13T12:42:44.402Z,0.55
2023-04-13T12:45:13.906Z,1.05
2023-04-13T12:47:44.236Z,0.80
2023-04-13T12:50:13.195Z,0.82
2023-04-13T12:52:44.321Z,0.70
2023-04-13T12:55:12.645Z,0.70
2023-04-13T12:57:41.003Z,0.70
2023-04-13T13:00:11.987Z,0.68
2023-04-13T13:02:44.569Z,0.85
2023-04-13T13:05:14.686Z,0.82
2023-04-13T13:07:43.172Z,0.68
2023-04-13T13:10:22.105Z,1.00
2023-04-13T13:12:58.023Z,0.80
2023-04-13T13:15:26.457Z,0.77
2023-04-13T13:17:54.782Z,0.43
2023-04-13T13:20:24.579Z,0.30
2023-04-13T13:22:52.973Z,0.50
2023-04-13T13:25:21.270Z,0.28
2023-04-13T13:30:20.739Z,0.40
2023-04-13T13:32:49.221Z,0.40
2023-04-13T13:35:17.732Z,0.50
2023-04-13T13:37:47.394Z,0.38
2023-04-13T13:40:15.848Z,0.50
2023-04-13T13:42:52.003Z,0.43
2023-04-13T13:45:21.767Z,0.50
2023-04-13T13:47:59.081Z,0.50
2023-04-13T13:50:44.635Z,0.40
2023-04-13T13:53:15.814Z,0.40
2023-04-13T13:55:44.287Z,0.57
2023-04-13T13:58:12.591Z,0.50
2023-04-13T14:00:42.183Z,0.40
2023-04-13T14:03:13.937Z,0.65
2023-04-13T14:05:43.970Z,0.73
2023-04-13T14:08:12.355Z,0.40
2023-04-13T14:10:47.387Z,0.30
2023-04-13T14:13:16.151Z,0.30
2023-04-13T14:15:44.531Z,0.45
2023-04-13T14:18:12.923Z,0.50
2023-04-13T14:20:41.459Z,0.47
2023-04-13T14:23:10.012Z,0.30
2023-04-13T14:25:40.923Z,0.52
2023-04-13T14:28:11.069Z,1.48
2023-04-13T14:30:40.545Z,1.58
2023-04-13T14:33:09.087Z,0.90
2023-04-13T14:35:38.673Z,0.93
2023-04-13T14:38:09.248Z,0.65
2023-04-13T14:40:37.742Z,0.60
2023-04-13T14:43:06.701Z,0.55
2023-04-13T14:45:36.405Z,0.60
2023-04-13T14:48:04.799Z,1.10
2023-04-13T14:50:33.172Z,0.70
2023-04-13T14:53:04.463Z,0.47
2023-04-13T14:55:32.853Z,0.45
2023-04-13T14:58:01.682Z,0.43
2023-04-13T15:00:41.976Z,0.40
2023-04-13T15:03:15.677Z,0.40
2023-04-13T15:05:46.131Z,0.32
2023-04-13T15:08:16.544Z,0.60
2023-04-13T15:10:45.773Z,0.50
2023-04-13T15:13:14.266Z,0.50
2023-04-13T15:15:42.751Z,0.52
2023-04-13T15:18:12.483Z,0.43
2023-04-13T15:20:40.858Z,0.52
2023-04-13T15:23:09.176Z,0.70
2023-04-13T15:25:38.699Z,0.85
2023-04-13T15:28:07.155Z,0.70
2023-04-13T15:30:35.673Z,0.50
2023-04-13T15:33:04.474Z,0.63
2023-04-13T15:35:35.949Z,0.60
2023-04-13T15:38:10.508Z,0.50
2023-04-13T15:40:39.016Z,0.43
2023-04-13T15:43:07.547Z,0.60
2023-04-13T15:45:36.247Z,0.80
2023-04-13T15:48:04.788Z,0.43
2023-04-13T15:50:34.480Z,0.60
2023-04-13T15:53:02.824Z,0.57
2023-04-13T15:55:31.599Z,0.63
2023-04-13T15:57:59.991Z,0.77
2023-04-13T16:00:28.484Z,0.60
2023-04-13T16:02:57.458Z,0.77
2023-04-13T16:05:25.905Z,0.80
2023-04-13T16:07:55.673Z,0.90
2023-04-13T16:10:24.077Z,0.70
2023-04-13T16:12:54.598Z,0.70
2023-04-13T16:15:24.034Z,0.98
2023-04-13T16:17:53.418Z,1.00
2023-04-13T16:20:22.189Z,0.70
2023-04-13T16:22:52.918Z,0.63
2023-04-13T16:25:22.804Z,0.68
2023-04-13T16:27:52.434Z,0.68
2023-04-13T16:30:21.986Z,0.50
2023-04-13T16:32:51.017Z,0.80
2023-04-13T16:35:19.595Z,0.75
2023-04-13T16:37:47.895Z,0.80
2023-04-13T16:40:16.653Z,0.93
2023-04-13T16:42:46.618Z,1.00
2023-04-13T16:45:15.602Z,1.23
2023-04-13T16:47:44.154Z,1.02
2023-04-13T16:50:13.215Z,1.48
2023-04-13T16:52:41.558Z,1.65
2023-04-13T16:55:13.961Z,1.60
2023-04-13T16:57:43.375Z,1.60
2023-04-13T17:00:14.884Z,1.50
2023-04-13T17:02:44.261Z,1.75
2023-04-13T17:05:13.421Z,1.73
2023-04-13T17:07:42.549Z,1.92
2023-04-13T17:10:12.389Z,2.05
2023-04-13T17:12:41.138Z,1.38
2023-04-13T17:15:10.260Z,1.42
2023-04-13T17:17:39.962Z,1.75
2023-04-13T17:20:09.457Z,1.98
2023-04-13T17:22:38.366Z,2.80
2023-04-13T17:25:06.985Z,2.65
2023-04-13T17:27:35.232Z,2.20
2023-04-13T17:30:03.599Z,2.50
2023-04-13T17:32:31.987Z,2.63
2023-04-13T17:35:01.690Z,2.75
2023-04-13T17:37:30.344Z,2.83
2023-04-13T17:39:58.676Z,2.10
2023-04-13T17:42:28.170Z,1.92
2023-04-13T17:44:56.477Z,1.30
2023-04-13T17:47:25.455Z,1.45
2023-04-13T17:49:53.776Z,1.40
2023-04-13T17:52:23.450Z,0.82
2023-04-13T17:54:51.730Z,0.80
2023-04-13T17:57:19.954Z,1.00
2023-04-13T17:59:48.242Z,0.50
2023-04-13T18:02:16.689Z,0.80
2023-04-13T18:04:45.107Z,0.70
2023-04-13T18:07:13.409Z,0.70
2023-04-13T18:09:43.247Z,0.60
2023-04-13T18:12:11.882Z,0.65
2023-04-13T18:14:40.306Z,0.60
2023-04-13T18:17:08.584Z,0.60
2023-04-13T18:19:37.301Z,0.68
2023-04-13T18:22:05.583Z,0.65
2023-04-13T18:24:33.878Z,0.65
2023-04-13T18:27:03.469Z,0.90
2023-04-13T18:29:31.797Z,0.90
2023-04-13T18:32:00.087Z,0.77
2023-04-13T18:34:30.595Z,0.70
2023-04-13T18:36:58.875Z,1.20
2023-04-13T18:39:27.239Z,0.88
2023-04-13T18:41:55.591Z,1.10
2023-04-13T18:44:25.266Z,1.48
2023-04-13T18:46:53.741Z,1.60
2023-04-13T18:49:22.097Z,1.52
2023-04-13T18:51:50.781Z,1.42
2023-04-13T18:54:19.121Z,1.10
2023-04-13T18:56:47.460Z,1.27
2023-04-13T18:59:15.709Z,0.90
2023-04-13T19:01:45.398Z,1.08
2023-04-13T19:04:14.033Z,1.58
2023-04-13T19:06:42.454Z,1.73
2023-04-13T19:09:10.797Z,1.65
2023-04-13T19:11:49.121Z,1.52
2023-04-13T19:14:17.412Z,1.95
2023-04-13T19:16:48.056Z,1.70
2023-04-13T19:19:16.624Z,2.25
2023-04-13T19:21:44.856Z,1.95
2023-04-13T19:24:13.271Z,2.10
2023-04-13T19:26:41.797Z,2.22
2023-04-13T19:29:12.538Z,2.20
2023-04-13T19:31:42.676Z,2.50
2023-04-13T19:34:12.663Z,2.22
2023-04-13T19:36:41.344Z,1.92
2023-04-13T19:39:10.138Z,2.47
2023-04-13T19:41:39.719Z,2.20
2023-04-13T19:44:08.875Z,2.25
2023-04-13T19:46:37.447Z,2.20
2023-04-13T19:49:05.719Z,2.55
2023-04-13T19:51:35.619Z,3.25
2023-04-13T19:54:05.055Z,4.03
2023-04-13T19:56:34.358Z,2.92
2023-04-13T19:59:03.128Z,2.97
2023-04-13T20:01:33.005Z,2.70
2023-04-13T20:04:01.935Z,2.13
2023-04-13T20:06:30.871Z,1.90
2023-04-13T20:09:09.428Z,2.10
2023-04-13T20:11:37.820Z,2.05
2023-04-13T20:14:06.140Z,2.67
2023-04-13T20:16:35.417Z,2.70
2023-04-13T20:19:03.755Z,2.78
2023-04-13T20:21:32.828Z,3.45
2023-04-13T20:24:01.292Z,3.40
2023-04-13T20:26:31.391Z,3.22
2023-04-13T20:29:00.068Z,2.80
2023-04-13T20:31:29.947Z,2.55
2023-04-13T20:33:58.618Z,2.55
2023-04-13T20:36:27.115Z,2.30
2023-04-13T20:38:59.157Z,2.22
2023-04-13T20:41:29.658Z,2.15
2023-04-13T20:43:59.829Z,2.13
2023-04-13T20:46:34.224Z,2.40
2023-04-13T20:49:04.584Z,2.78
2023-04-13T20:51:33.564Z,2.92
2023-04-13T20:54:05.200Z,3.00
2023-04-13T20:56:33.488Z,3.50
2023-04-13T20:59:03.355Z,4.07
2023-04-13T21:01:31.694Z,3.50
2023-04-13T21:04:00.245Z,3.70
2023-04-13T21:06:29.767Z,3.40
2023-04-13T21:08:58.754Z,4.13
2023-04-13T21:11:27.040Z,3.30
2023-04-13T21:13:55.404Z,2.88
2023-04-13T21:16:26.409Z,3.50
2023-04-13T21:18:54.972Z,3.03
2023-04-13T21:21:24.586Z,3.22
2023-04-13T21:23:52.977Z,3.70
2023-04-13T21:26:21.584Z,3.30
2023-04-13T21:28:49.833Z,3.38
2023-04-13T21:31:18.181Z,2.80
2023-04-13T21:33:48.057Z,2.83
2023-04-13T21:38:47.622Z,2.55
2023-04-13T21:41:16.410Z,2.83
2023-04-13T21:43:44.743Z,2.85
2023-04-13T21:46:13.309Z,2.90
2023-04-13T21:48:41.665Z,3.15
2023-04-13T21:51:11.472Z,3.50
2023-04-13T21:53:40.123Z,3.50
2023-04-13T21:56:08.717Z,3.72
2023-04-13T21:58:40.672Z,3.70
2023-04-13T22:01:09.226Z,4.45
2023-04-13T22:03:38.617Z,4.20
2023-04-13T22:06:08.170Z,4.40
2023-04-13T22:08:37.966Z,4.60
2023-04-13T22:11:06.414Z,3.88
2023-04-13T22:13:34.720Z,4.20
2023-04-13T22:16:03.265Z,4.38
2023-04-13T22:18:31.545Z,3.75
2023-04-13T22:21:00.428Z,4.00
2023-04-13T22:23:29.072Z,4.07
2023-04-13T22:26:01.106Z,4.20
2023-04-13T22:28:29.445Z,4.03
2023-04-13T22:30:57.746Z,4.55
2023-04-13T22:33:31.520Z,4.47
2023-04-13T22:35:59.975Z,4.07
2023-04-13T22:38:28.233Z,4.32
2023-04-13T22:40:56.528Z,4.00
2023-04-13T22:43:26.202Z,4.60
2023-04-13T22:46:00.786Z,3.85
2023-04-13T22:48:29.535Z,3.95
2023-04-13T22:50:58.008Z,4.38
2023-04-13T22:53:26.908Z,4.45
2023-04-13T22:55:55.354Z,3.78
2023-04-13T22:58:23.656Z,4.05
2023-04-13T23:00:53.345Z,4.57
2023-04-13T23:03:22.151Z,4.63
2023-04-13T23:05:50.506Z,3.92
2023-04-13T23:08:19.716Z,4.60
2023-04-13T23:10:53.078Z,5.40
